Time;durP1;ratioP1;P1;durP2;ratioP2;P2;SDS_P1;SDS_P2;PMS_P1;PMS_P2;Temp;Humidity;BMP_temperature;BMP_pressure;BME280_temperature;BME280_humidity;BME280_pressure;Samples;Min_cycle;Max_cycle;Signal;HPM_P1;HPM_P2
2022/07/01 04:02:33;;;;;;;2.77;1.80;;;15.30;99.90;;;;;;5026221;23;20517;-64
2022/07/01 04:05:00;;;;;;;1.70;1.60;;;15.30;99.90;;;;;;4994429;28;20519;-64
2022/07/01 04:07:27;;;;;;;1.93;1.83;;;15.30;99.90;;;;;;4994263;28;20446;-64
2022/07/01 04:09:54;;;;;;;2.00;1.90;;;15.40;99.90;;;;;;4994244;28;20456;-64
2022/07/01 04:12:21;;;;;;;3.07;1.70;;;15.40;99.90;;;;;;4993889;28;20473;-64
2022/07/01 04:14:48;;;;;;;1.60;1.50;;;15.40;99.90;;;;;;4995762;28;20453;-64
2022/07/01 04:17:15;;;;;;;1.70;1.70;;;15.40;99.90;;;;;;4998336;28;20456;-64
2022/07/01 04:19:43;;;;;;;1.70;1.60;;;15.40;99.90;;;;;;4998169;28;20988;-64
2022/07/01 04:24:54;;;;;;;1.97;1.87;;;15.50;99.90;;;;;;4998446;28;20461;-64
2022/07/01 04:27:21;;;;;;;1.93;1.87;;;15.50;99.90;;;;;;4998108;28;20554;-64
2022/07/01 04:29:48;;;;;;;1.80;1.70;;;15.50;99.90;;;;;;4997939;28;20454;-64
2022/07/01 04:32:15;;;;;;;2.10;2.00;;;15.50;99.90;;;;;;4998477;28;20513;-64
2022/07/01 04:34:43;;;;;;;2.60;2.50;;;15.50;99.90;;;;;;4998492;28;20454;-64
2022/07/01 04:37:10;;;;;;;2.27;2.17;;;15.50;99.90;;;;;;4998166;28;20512;-64
2022/07/01 04:39:36;;;;;;;4.50;2.70;;;15.50;99.90;;;;;;4997798;28;20477;-64
2022/07/01 04:42:03;;;;;;;2.77;2.60;;;15.50;99.90;;;;;;4997897;28;20481;-64
2022/07/01 04:44:31;;;;;;;2.97;2.70;;;15.40;99.90;;;;;;4997745;28;20457;-64
2022/07/01 04:46:59;;;;;;;3.10;2.80;;;15.40;99.90;;;;;;4997734;28;20457;-64
2022/07/01 04:49:26;;;;;;;2.70;2.60;;;15.40;99.90;;;;;;4997704;28;20457;-64
2022/07/01 04:51:54;;;;;;;4.47;3.00;;;15.40;99.90;;;;;;4997388;28;20481;-64
2022/07/01 04:54:21;;;;;;;2.50;2.40;;;15.40;99.90;;;;;;4997576;28;20504;-64
2022/07/01 04:56:48;;;;;;;3.10;2.90;;;15.40;99.90;;;;;;4997453;28;20815;-65
2022/07/01 04:59:16;;;;;;;2.60;2.50;;;15.50;99.90;;;;;;4997695;28;20477;-64
2022/07/01 05:01:43;;;;;;;3.07;2.87;;;15.50;99.90;;;;;;4997241;28;20481;-64
2022/07/01 05:04:10;;;;;;;2.60;2.33;;;15.60;99.90;;;;;;4997484;28;20471;-64
2022/07/01 05:06:37;;;;;;;3.23;3.03;;;15.60;99.90;;;;;;4997500;28;20464;-64
2022/07/01 05:09:05;;;;;;;2.90;2.80;;;15.60;99.90;;;;;;4997359;28;20469;-64
2022/07/01 05:11:32;;;;;;;3.70;3.40;;;15.60;99.90;;;;;;4997248;28;20548;-64
2022/07/01 05:13:59;;;;;;;3.27;3.00;;;15.50;99.90;;;;;;4997259;28;20457;-65
2022/07/01 05:16:26;;;;;;;3.17;2.97;;;15.50;99.90;;;;;;4997221;28;20458;-65
2022/07/01 05:24:23;;;;;;;3.63;3.10;;;15.50;99.90;;;;;;4997183;28;20525;-64
2022/07/01 05:26:50;;;;;;;6.17;4.03;;;15.50;99.90;;;;;;4995901;28;20486;-64
2022/07/01 05:29:17;;;;;;;4.00;3.40;;;15.50;99.90;;;;;;4996841;28;20450;-63
2022/07/01 05:31:43;;;;;;;3.47;3.10;;;15.40;99.90;;;;;;4997348;28;20485;-63
2022/07/01 05:34:10;;;;;;;3.03;2.77;;;15.40;99.90;;;;;;4997700;28;20481;-64
2022/07/01 05:36:37;;;;;;;4.00;3.60;;;15.30;99.90;;;;;;4997072;28;20461;-63
2022/07/01 05:39:04;;;;;;;3.53;3.23;;;15.30;99.90;;;;;;4997259;28;20477;-64
2022/07/01 05:41:33;;;;;;;8.83;3.57;;;15.30;99.90;;;;;;4996991;28;20473;-64
2022/07/01 05:43:59;;;;;;;4.80;3.53;;;15.40;99.90;;;;;;4996829;28;20453;-64
2022/07/01 05:46:26;;;;;;;3.80;3.50;;;15.40;99.90;;;;;;4996982;28;20454;-64
2022/07/01 05:48:53;;;;;;;4.40;3.50;;;15.30;99.90;;;;;;4996707;28;20461;-64
2022/07/01 05:51:19;;;;;;;3.37;3.07;;;15.30;99.90;;;;;;4996609;28;20478;-64
2022/07/01 05:53:47;;;;;;;3.30;3.10;;;15.30;99.90;;;;;;4996674;28;20859;-64
2022/07/01 05:56:14;;;;;;;4.20;3.30;;;15.30;99.90;;;;;;4996615;28;20504;-64
2022/07/01 05:58:42;;;;;;;5.60;3.80;;;15.30;99.90;;;;;;5009009;28;20486;-65
2022/07/01 06:01:08;;;;;;;3.20;3.00;;;15.30;99.90;;;;;;5006278;28;20568;-64
2022/07/01 06:03:35;;;;;;;3.20;3.00;;;15.30;99.90;;;;;;4996636;28;20457;-64
2022/07/01 06:06:02;;;;;;;4.40;2.83;;;15.30;99.90;;;;;;4996208;28;20480;-64
2022/07/01 06:08:29;;;;;;;2.87;2.73;;;15.30;99.90;;;;;;4996269;28;20453;-64
2022/07/01 06:10:56;;;;;;;4.60;3.30;;;15.30;99.90;;;;;;4995995;28;20478;-64
2022/07/01 06:13:22;;;;;;;2.43;2.33;;;15.40;99.90;;;;;;4996106;28;20457;-64
2022/07/01 06:15:50;;;;;;;3.53;3.23;;;15.40;99.90;;;;;;4996989;28;20454;-64
2022/07/01 06:18:17;;;;;;;2.90;2.73;;;15.40;99.90;;;;;;4999976;28;20461;-64
2022/07/01 06:20:44;;;;;;;4.47;2.40;;;15.40;99.90;;;;;;5006856;28;20478;-64
2022/07/01 06:23:10;;;;;;;2.37;2.27;;;15.30;99.90;;;;;;5013255;28;20929;-64
2022/07/01 06:25:37;;;;;;;3.00;2.63;;;15.40;99.90;;;;;;5000319;28;20461;-64
2022/07/01 06:28:04;;;;;;;2.33;2.23;;;15.30;99.90;;;;;;4996105;28;20466;-63
2022/07/01 06:30:31;;;;;;;2.23;2.13;;;15.40;99.90;;;;;;4995522;28;20489;-63
2022/07/01 06:32:59;;;;;;;2.70;2.60;;;15.30;99.90;;;;;;4995428;28;20461;-64
2022/07/01 06:35:26;;;;;;;4.43;2.53;;;15.30;99.90;;;;;;4995861;28;20457;-64
2022/07/01 06:37:53;;;;;;;2.40;2.30;;;15.30;99.90;;;;;;4995436;28;20462;-64
2022/07/01 06:40:19;;;;;;;3.40;2.70;;;15.30;99.90;;;;;;4995214;28;20560;-64
2022/07/01 06:42:46;;;;;;;3.37;2.40;;;15.40;99.90;;;;;;4995578;28;20811;-64
2022/07/01 06:45:13;;;;;;;3.23;2.37;;;15.40;99.90;;;;;;4995531;28;20575;-64
2022/07/01 06:47:41;;;;;;;2.40;2.20;;;15.40;99.90;;;;;;4995260;28;20789;-64
2022/07/01 06:50:10;;;;;;;2.30;2.20;;;15.40;99.90;;;;;;4995523;28;20450;-64
2022/07/01 06:52:36;;;;;;;2.50;2.30;;;15.40;99.90;;;;;;4995361;28;20461;-64
2022/07/01 06:55:03;;;;;;;2.20;2.10;;;15.40;99.90;;;;;;4995397;28;20458;-64
2022/07/01 06:57:30;;;;;;;2.90;2.80;;;15.40;99.90;;;;;;4995111;28;20461;-64
2022/07/01 06:59:57;;;;;;;2.47;2.27;;;15.40;99.90;;;;;;4995118;28;20477;-64
2022/07/01 07:02:24;;;;;;;2.57;2.43;;;15.50;99.90;;;;;;4994831;28;20520;-64
2022/07/01 07:04:54;;;;;;;2.47;2.30;;;15.50;99.90;;;;;;4995272;28;20458;-64
2022/07/01 07:07:22;;;;;;;2.23;2.13;;;15.50;99.90;;;;;;4995763;28;20548;-64
2022/07/01 07:09:48;;;;;;;3.00;2.80;;;15.50;99.90;;;;;;4995354;28;20933;-63
2022/07/01 07:12:15;;;;;;;2.10;1.90;;;15.50;99.90;;;;;;4995496;28;20474;-64
2022/07/01 07:14:42;;;;;;;2.43;2.37;;;15.50;99.90;;;;;;4995412;28;21023;-64
2022/07/01 07:17:09;;;;;;;1.60;1.50;;;15.60;99.90;;;;;;4995895;28;20454;-64
2022/07/01 07:19:35;;;;;;;2.00;1.90;;;15.60;99.90;;;;;;4995455;28;20489;-64
2022/07/01 07:22:02;;;;;;;5.13;2.07;;;15.70;99.90;;;;;;4994990;28;20547;-64
2022/07/01 07:24:30;;;;;;;2.17;1.70;;;15.60;99.90;;;;;;4994763;28;20972;-64
2022/07/01 07:26:57;;;;;;;1.87;1.77;;;15.70;99.90;;;;;;4995086;28;20453;-64
2022/07/01 07:29:23;;;;;;;1.97;1.80;;;15.70;99.90;;;;;;4995003;28;20811;-64
2022/07/01 07:31:50;;;;;;;1.90;1.80;;;15.70;99.90;;;;;;4994941;28;20501;-64
2022/07/01 07:34:17;;;;;;;1.57;1.57;;;15.70;99.90;;;;;;4995179;28;20442;-65
2022/07/01 07:36:43;;;;;;;2.17;1.83;;;15.60;99.90;;;;;;4994927;28;20477;-65
2022/07/01 07:39:10;;;;;;;2.00;1.90;;;15.70;99.90;;;;;;4995123;28;20473;-64
2022/07/01 07:41:39;;;;;;;3.07;2.20;;;15.70;99.90;;;;;;4994697;28;20474;-64
2022/07/01 07:44:05;;;;;;;2.03;1.93;;;15.70;99.90;;;;;;4994824;28;20453;-65
2022/07/01 07:46:32;;;;;;;2.17;2.00;;;15.80;99.90;;;;;;4995064;28;20458;-64
2022/07/01 07:48:59;;;;;;;2.63;2.53;;;15.80;99.90;;;;;;4993828;28;20496;-64
2022/07/01 07:51:26;;;;;;;2.43;2.33;;;16.00;99.90;;;;;;4994662;28;20480;-64
2022/07/01 07:53:53;;;;;;;1.97;1.93;;;16.00;99.90;;;;;;4994680;28;20454;-65
2022/07/01 07:56:20;;;;;;;2.67;2.40;;;16.10;99.90;;;;;;4994563;28;20488;-65
2022/07/01 07:58:48;;;;;;;2.43;2.33;;;16.10;99.90;;;;;;4994740;28;20826;-65
2022/07/01 08:01:15;;;;;;;3.43;2.67;;;16.20;99.90;;;;;;4994838;28;20485;-64
2022/07/01 08:03:41;;;;;;;2.90;2.70;;;16.20;99.90;;;;;;4994615;28;20489;-64
2022/07/01 08:06:08;;;;;;;2.80;2.57;;;16.10;99.90;;;;;;4994602;28;20460;-64
2022/07/01 08:08:35;;;;;;;6.70;2.90;;;16.10;99.90;;;;;;4994558;28;20459;-64
2022/07/01 08:11:02;;;;;;;2.67;2.57;;;16.10;99.90;;;;;;4994494;28;20470;-64
2022/07/01 08:13:29;;;;;;;3.47;3.20;;;16.10;99.90;;;;;;4994696;28;20458;-64
2022/07/01 08:15:57;;;;;;;6.10;2.80;;;16.10;99.90;;;;;;4994638;28;20457;-64
2022/07/01 08:18:24;;;;;;;3.13;2.93;;;16.00;99.90;;;;;;4994539;28;20480;-64
2022/07/01 08:20:52;;;;;;;4.63;3.13;;;16.00;99.90;;;;;;4994447;28;20477;-65
2022/07/01 08:23:20;;;;;;;3.57;3.37;;;16.00;99.90;;;;;;4994660;28;20497;-65
2022/07/01 08:25:47;;;;;;;2.93;2.77;;;16.00;99.90;;;;;;4994224;28;20979;-65
2022/07/01 08:28:14;;;;;;;3.17;3.07;;;16.10;99.90;;;;;;4995360;28;20458;-65
2022/07/01 08:30:41;;;;;;;3.70;3.40;;;16.10;99.90;;;;;;4995135;28;20473;-65
2022/07/01 08:33:09;;;;;;;3.73;3.20;;;16.10;99.90;;;;;;4994647;28;20453;-64
2022/07/01 08:35:36;;;;;;;3.97;3.57;;;16.10;99.90;;;;;;4994397;28;20460;-64
2022/07/01 08:38:04;;;;;;;3.60;3.40;;;16.10;99.90;;;;;;4994548;28;20458;-64
2022/07/01 08:40:31;;;;;;;4.30;3.40;;;16.10;99.90;;;;;;4994323;28;20480;-64
2022/07/01 08:42:59;;;;;;;3.43;3.23;;;16.10;99.90;;;;;;4994496;28;20458;-65
2022/07/01 08:45:27;;;;;;;3.77;3.47;;;16.10;99.90;;;;;;4994675;28;20461;-64
2022/07/01 08:47:57;;;;;;;3.60;3.30;;;16.00;99.90;;;;;;4994903;28;20515;-65
2022/07/01 08:50:26;;;;;;;4.27;3.83;;;16.00;99.90;;;;;;4994559;28;20549;-64
2022/07/01 08:52:53;;;;;;;4.80;3.80;;;16.10;99.90;;;;;;4995150;28;20457;-65
2022/07/01 08:55:20;;;;;;;3.67;3.47;;;16.10;99.90;;;;;;4994700;28;20493;-65
2022/07/01 08:57:47;;;;;;;3.10;3.00;;;16.10;99.90;;;;;;4994568;28;20458;-64
2022/07/01 09:00:15;;;;;;;3.77;3.50;;;16.00;99.90;;;;;;4994635;28;20539;-65
2022/07/01 09:02:56;;;;;;;3.37;3.17;;;16.00;99.90;;;;;;4998311;28;20514;-65
2022/07/01 09:05:26;;;;;;;3.93;3.63;;;16.00;99.90;;;;;;4998089;28;20450;-64
2022/07/01 09:08:00;;;;;;;3.90;3.60;;;16.10;99.90;;;;;;4998277;28;20453;-65
2022/07/01 09:10:27;;;;;;;4.13;3.83;;;16.00;99.90;;;;;;4997737;28;20461;-64
2022/07/01 09:12:54;;;;;;;3.73;3.47;;;16.00;99.90;;;;;;4997734;28;20457;-64
2022/07/01 09:15:28;;;;;;;4.03;3.83;;;16.00;99.90;;;;;;4997771;28;20489;-64
2022/07/01 09:17:57;;;;;;;3.50;3.20;;;16.00;99.90;;;;;;4997970;28;20925;-64
2022/07/01 09:20:28;;;;;;;3.67;3.37;;;16.00;99.90;;;;;;4997032;28;21011;-64
2022/07/01 09:23:05;;;;;;;2.77;2.60;;;15.90;99.90;;;;;;4998368;28;20441;-64
2022/07/01 09:25:36;;;;;;;3.17;2.63;;;15.90;99.90;;;;;;5012760;28;20461;-66
2022/07/01 09:28:08;;;;;;;2.93;2.73;;;15.90;99.90;;;;;;5001790;28;20442;-64
2022/07/01 09:30:35;;;;;;;3.47;3.27;;;15.80;99.90;;;;;;4997055;28;20474;-64
2022/07/01 09:33:10;;;;;;;3.50;3.20;;;15.80;99.90;;;;;;4997077;28;20457;-64
2022/07/01 09:35:38;;;;;;;3.30;3.00;;;15.80;99.90;;;;;;4996777;28;20442;-64
2022/07/01 09:38:07;;;;;;;2.77;2.67;;;15.70;99.90;;;;;;4999875;28;20458;-64
2022/07/01 09:40:51;;;;;;;2.70;2.60;;;15.70;99.90;;;;;;4999497;28;20939;-64
2022/07/01 09:43:20;;;;;;;2.87;2.70;;;15.60;99.90;;;;;;4998153;28;20442;-64
2022/07/01 09:45:55;;;;;;;3.23;3.10;;;15.60;99.90;;;;;;4997516;28;20454;-64
2022/07/01 09:48:22;;;;;;;3.10;2.97;;;15.70;99.90;;;;;;4997323;28;20442;-64
2022/07/01 09:50:51;;;;;;;3.20;2.93;;;15.70;99.90;;;;;;4996905;28;20470;-64
2022/07/01 09:53:19;;;;;;;2.70;2.60;;;15.70;99.90;;;;;;4996761;28;20457;-65
2022/07/01 09:55:45;;;;;;;3.00;2.80;;;15.80;99.90;;;;;;4996871;28;20457;-63
2022/07/01 09:58:12;;;;;;;3.70;3.50;;;15.80;99.90;;;;;;4996527;28;20822;-64
2022/07/01 10:00:39;;;;;;;3.87;3.57;;;15.90;99.90;;;;;;4996534;28;20485;-64
2022/07/01 10:03:07;;;;;;;4.10;3.50;;;15.90;99.90;;;;;;4996360;28;20971;-63
2022/07/01 10:05:39;;;;;;;6.30;3.50;;;16.00;99.90;;;;;;4996638;28;20469;-65
2022/07/01 10:08:20;;;;;;;3.00;2.90;;;16.00;99.90;;;;;;4996975;28;20833;-65
2022/07/01 10:10:52;;;;;;;4.10;3.50;;;16.10;99.90;;;;;;4996784;28;20473;-65
2022/07/01 10:13:24;;;;;;;4.27;3.03;;;16.10;99.90;;;;;;4996112;28;20438;-65
2022/07/01 10:15:52;;;;;;;7.60;2.97;;;16.20;99.90;;;;;;4996261;28;20450;-65
2022/07/01 10:18:22;;;;;;;3.70;2.60;;;16.40;99.90;;;;;;4996367;28;20822;-65
2022/07/01 10:20:50;;;;;;;2.40;2.30;;;16.50;99.90;;;;;;4996182;28;20848;-67
2022/07/01 10:23:21;;;;;;;2.80;2.27;;;16.80;99.90;;;;;;4996241;28;20458;-65
2022/07/01 10:25:48;;;;;;;2.53;2.33;;;17.00;99.90;;;;;;4996248;28;20876;-65
2022/07/01 10:28:23;;;;;;;2.40;2.20;;;17.20;99.90;;;;;;4995597;28;20937;-65
2022/07/01 10:30:52;;;;;;;2.57;2.37;;;17.30;99.90;;;;;;4996025;28;20479;-65
2022/07/01 10:33:50;;;;;;;4.43;2.60;;;17.40;99.90;;;;;;4995682;28;20819;-65
2022/07/01 10:36:19;;;;;;;1.77;1.60;;;17.60;99.90;;;;;;4989602;28;20956;-66
2022/07/01 10:39:10;;;;;;;1.67;1.57;;;17.90;99.90;;;;;;4995840;28;20457;-65
2022/07/01 10:41:39;;;;;;;4.13;2.20;;;18.10;99.90;;;;;;4995694;28;20482;-65
2022/07/01 10:44:08;;;;;;;2.00;1.90;;;18.30;99.90;;;;;;4996206;28;20461;-65
2022/07/01 10:46:43;;;;;;;1.77;1.67;;;18.40;99.90;;;;;;4995877;28;20466;-65
2022/07/01 10:49:12;;;;;;;1.70;1.60;;;18.60;99.90;;;;;;4995635;28;20528;-64
2022/07/01 10:51:50;;;;;;;2.23;1.30;;;18.70;99.90;;;;;;4995468;28;20469;-66
2022/07/01 10:54:49;;;;;;;1.83;1.73;;;18.80;99.90;;;;;;4995106;28;20941;-65
2022/07/01 10:57:30;;;;;;;2.00;1.47;;;18.90;99.90;;;;;;4995627;28;20453;-65
2022/07/01 11:00:12;;;;;;;1.80;1.70;;;19.00;99.90;;;;;;4995553;28;20449;-65
2022/07/01 11:02:40;;;;;;;1.40;1.30;;;19.10;99.90;;;;;;4995194;28;20461;-64
2022/07/01 11:05:10;;;;;;;1.47;1.37;;;19.30;99.90;;;;;;4995908;28;20458;-65
2022/07/01 11:07:39;;;;;;;1.70;1.60;;;19.50;99.90;;;;;;4995918;28;20536;-63
2022/07/01 11:10:10;;;;;;;2.87;1.53;;;19.70;99.90;;;;;;4995171;28;20457;-63
2022/07/01 11:12:37;;;;;;;1.40;1.30;;;20.30;99.90;;;;;;4994923;28;20477;-63
2022/07/01 11:15:06;;;;;;;1.90;1.60;;;20.50;99.90;;;;;;4995472;28;20481;-63
2022/07/01 11:17:33;;;;;;;1.80;1.67;;;20.80;99.90;;;;;;4994970;28;20457;-64
2022/07/01 11:20:01;;;;;;;1.73;1.57;;;20.90;99.90;;;;;;4994713;28;21007;-63
2022/07/01 11:22:30;;;;;;;2.07;1.87;;;21.40;99.90;;;;;;4995134;28;20492;-63
2022/07/01 11:24:58;;;;;;;2.03;1.20;;;21.70;99.90;;;;;;4994327;28;20460;-64
2022/07/01 11:27:27;;;;;;;1.37;1.30;;;21.70;99.90;;;;;;4994687;28;20464;-64
2022/07/01 11:29:55;;;;;;;1.60;1.50;;;21.40;99.90;;;;;;4995008;28;20466;-64
2022/07/01 11:32:26;;;;;;;1.50;1.40;;;21.60;99.90;;;;;;4994997;28;20476;-64
2022/07/01 11:34:53;;;;;;;2.60;1.60;;;21.70;99.90;;;;;;4994917;28;20496;-64
2022/07/01 11:40:07;;;;;;;1.87;1.50;;;21.80;99.90;;;;;;4994801;28;20413;-64
2022/07/01 11:42:36;;;;;;;1.70;1.60;;;21.90;99.90;;;;;;4995279;28;20509;-64
2022/07/01 11:45:03;;;;;;;3.10;1.70;;;22.00;99.90;;;;;;4994680;28;20453;-64
2022/07/01 11:47:30;;;;;;;1.93;1.60;;;21.70;99.90;;;;;;4994681;28;20478;-64
2022/07/01 11:49:58;;;;;;;1.43;1.33;;;21.80;99.90;;;;;;4994306;28;20822;-64
2022/07/01 11:52:26;;;;;;;1.67;1.53;;;21.90;99.90;;;;;;4994323;28;20520;-64
2022/07/01 11:54:54;;;;;;;1.47;1.37;;;21.60;99.90;;;;;;4994741;28;20460;-64
2022/07/01 11:57:22;;;;;;;1.60;1.50;;;21.30;99.90;;;;;;4994520;28;20962;-64
2022/07/01 11:59:52;;;;;;;2.17;2.07;;;21.10;99.90;;;;;;4994512;28;20465;-64
2022/07/01 12:02:21;;;;;;;1.70;1.60;;;20.90;99.90;;;;;;4993888;28;20485;-64
2022/07/01 12:04:49;;;;;;;1.60;1.50;;;20.80;99.90;;;;;;4994610;28;20466;-64
2022/07/01 12:07:17;;;;;;;1.67;1.67;;;20.70;99.90;;;;;;4994522;28;20461;-64
2022/07/01 12:09:44;;;;;;;2.20;1.40;;;20.70;99.90;;;;;;4994290;28;20468;-63
2022/07/01 12:12:16;;;;;;;2.27;1.53;;;20.40;99.90;;;;;;4994333;28;20469;-64
2022/07/01 12:14:52;;;;;;;1.77;1.67;;;20.40;99.90;;;;;;4993993;28;20492;-64
2022/07/01 12:17:20;;;;;;;4.27;1.70;;;20.30;99.90;;;;;;4994125;28;20975;-64
2022/07/01 12:19:48;;;;;;;3.50;2.10;;;20.10;99.90;;;;;;4994278;28;20450;-64
2022/07/01 12:22:18;;;;;;;2.13;2.03;;;20.00;99.90;;;;;;4994229;28;20532;-64
2022/07/01 12:24:45;;;;;;;2.70;2.00;;;19.80;99.90;;;;;;4994390;28;20453;-64
2022/07/01 12:27:12;;;;;;;1.90;1.80;;;19.80;99.90;;;;;;4994438;28;20454;-64
2022/07/01 12:29:54;;;;;;;1.50;1.30;;;19.80;99.90;;;;;;4994112;28;20512;-64
2022/07/01 12:32:23;;;;;;;1.50;1.40;;;19.90;99.90;;;;;;4993951;28;20470;-64
2022/07/01 12:34:52;;;;;;;2.40;1.80;;;20.20;99.90;;;;;;4994466;28;20810;-64
2022/07/01 12:37:21;;;;;;;1.80;1.40;;;20.40;99.90;;;;;;4999245;28;20457;-64
2022/07/01 12:39:49;;;;;;;2.20;1.50;;;20.80;99.90;;;;;;5016880;28;20446;-64
2022/07/01 12:42:24;;;;;;;2.10;1.70;;;21.40;99.90;;;;;;5006468;28;20489;-64
2022/07/01 12:44:54;;;;;;;2.33;1.47;;;21.70;99.90;;;;;;4998294;28;20460;-64
2022/07/01 12:47:22;;;;;;;2.23;1.33;;;22.10;99.90;;;;;;4997829;28;20461;-64
2022/07/01 12:49:48;;;;;;;1.53;1.43;;;22.30;99.90;;;;;;4997856;28;20463;-64
2022/07/01 12:52:25;;;;;;;1.53;1.43;;;22.30;99.90;;;;;;4998515;28;20528;-65
2022/07/01 12:54:52;;;;;;;2.03;1.57;;;22.40;99.90;;;;;;4998772;28;20844;-65
2022/07/01 12:57:30;;;;;;;1.90;1.80;;;22.30;99.90;;;;;;4999549;28;20465;-65
2022/07/01 12:59:58;;;;;;;1.70;1.53;;;22.00;99.90;;;;;;4998504;28;20995;-64
2022/07/01 13:02:25;;;;;;;1.70;1.60;;;21.90;99.90;;;;;;4998245;28;20989;-64
2022/07/01 13:04:52;;;;;;;1.93;1.83;;;21.70;99.90;;;;;;4999403;28;20450;-65
2022/07/01 13:07:18;;;;;;;1.90;1.80;;;21.60;99.90;;;;;;4999017;28;20454;-64
2022/07/01 13:09:45;;;;;;;1.83;1.73;;;21.60;99.90;;;;;;4997652;28;20515;-64
2022/07/01 13:12:12;;;;;;;1.97;1.87;;;21.50;99.90;;;;;;4997522;28;20474;-64
2022/07/01 13:14:38;;;;;;;2.70;1.60;;;21.30;99.90;;;;;;4997588;28;20461;-64
2022/07/01 13:17:06;;;;;;;1.70;1.60;;;21.60;99.90;;;;;;4997617;28;20458;-64
2022/07/01 13:19:34;;;;;;;1.63;1.60;;;21.90;99.90;;;;;;4997447;28;20457;-64
2022/07/01 13:22:01;;;;;;;1.57;1.47;;;22.10;99.90;;;;;;4997178;28;20565;-65
2022/07/01 13:24:28;;;;;;;9.83;1.90;;;22.50;99.90;;;;;;4997291;28;20885;-64
2022/07/01 13:26:54;;;;;;;1.50;1.40;;;22.70;99.90;;;;;;4997344;28;20461;-64
2022/07/01 13:29:21;;;;;;;4.47;1.50;;;22.80;99.90;;;;;;4997314;28;20818;-64
2022/07/01 13:31:48;;;;;;;2.67;1.40;;;23.00;99.90;;;;;;4996534;28;20838;-64
2022/07/01 13:34:16;;;;;;;3.10;1.63;;;23.10;99.90;;;;;;4996923;28;20462;-65
2022/07/01 13:36:43;;;;;;;1.30;1.30;;;23.00;99.90;;;;;;4996852;28;20458;-65
2022/07/01 13:39:09;;;;;;;2.00;1.47;;;23.10;99.90;;;;;;4996547;28;20949;-65
2022/07/01 13:41:37;;;;;;;2.57;1.50;;;23.00;99.90;;;;;;4996763;28;20520;-65
2022/07/01 13:44:03;;;;;;;1.37;1.27;;;23.00;99.90;;;;;;4996696;28;20461;-64
2022/07/01 13:46:30;;;;;;;1.27;1.27;;;23.10;99.90;;;;;;4996450;28;20454;-64
2022/07/01 13:48:57;;;;;;;1.20;1.20;;;23.10;99.90;;;;;;4996116;28;20953;-64
2022/07/01 13:51:25;;;;;;;1.80;1.70;;;23.30;99.90;;;;;;4997228;28;20878;-64
2022/07/01 13:53:52;;;;;;;4.17;2.53;;;23.30;99.90;;;;;;4996735;28;20461;-64
2022/07/01 13:56:19;;;;;;;1.87;1.40;;;23.40;99.90;;;;;;4996860;28;20832;-64
2022/07/01 13:58:49;;;;;;;1.20;1.10;;;23.40;99.90;;;;;;4996909;28;20462;-65
2022/07/01 14:01:16;;;;;;;4.20;1.20;;;23.40;99.90;;;;;;4996103;28;20973;-64
2022/07/01 14:03:42;;;;;;;1.73;1.63;;;23.50;99.90;;;;;;4996609;28;20453;-66
2022/07/01 14:06:09;;;;;;;1.63;1.53;;;23.60;99.90;;;;;;4996688;28;20453;-64
2022/07/01 14:08:37;;;;;;;1.77;1.67;;;23.60;99.90;;;;;;4996642;28;20514;-63
2022/07/01 14:11:04;;;;;;;1.50;1.40;;;23.20;99.90;;;;;;4996198;28;20481;-64
2022/07/01 14:13:31;;;;;;;2.00;1.67;;;22.80;99.90;;;;;;4996405;28;20457;-64
2022/07/01 14:15:57;;;;;;;2.63;2.20;;;22.30;99.90;;;;;;4996206;28;20948;-64
2022/07/01 14:18:24;;;;;;;4.40;1.87;;;22.10;99.90;;;;;;4996292;28;20453;-65
2022/07/01 14:20:51;;;;;;;1.80;1.70;;;21.90;99.90;;;;;;4996141;28;20478;-64
2022/07/01 14:23:18;;;;;;;1.87;1.77;;;21.80;99.90;;;;;;4996032;28;20482;-64
2022/07/01 14:25:46;;;;;;;1.77;1.67;;;21.80;99.90;;;;;;4996022;28;20465;-64
2022/07/01 14:28:13;;;;;;;1.73;1.70;;;21.70;99.90;;;;;;4996491;28;20454;-64
2022/07/01 14:30:39;;;;;;;2.30;2.03;;;21.60;99.90;;;;;;4995979;28;20525;-65
2022/07/01 14:33:06;;;;;;;1.80;1.70;;;21.70;99.90;;;;;;4995905;28;20453;-65
2022/07/01 14:35:33;;;;;;;2.20;2.10;;;21.90;99.90;;;;;;4995783;28;21003;-65
2022/07/01 14:38:00;;;;;;;2.20;2.00;;;21.90;99.90;;;;;;4995561;28;20457;-65
2022/07/01 14:40:27;;;;;;;1.67;1.67;;;22.00;99.90;;;;;;4995810;28;20461;-65
2022/07/01 14:42:55;;;;;;;2.27;2.07;;;22.10;99.90;;;;;;4996029;28;20852;-65
2022/07/01 14:45:22;;;;;;;1.90;1.80;;;22.10;99.90;;;;;;4996244;28;20457;-65
2022/07/01 14:47:48;;;;;;;2.03;1.90;;;22.10;99.90;;;;;;4996057;28;20458;-65
2022/07/01 14:50:15;;;;;;;2.30;2.10;;;21.80;99.90;;;;;;4995487;28;20806;-65
2022/07/01 14:52:42;;;;;;;1.40;1.40;;;21.70;99.90;;;;;;4995573;28;20461;-65
2022/07/01 14:55:09;;;;;;;2.03;1.93;;;21.70;99.90;;;;;;4995509;28;20462;-65
2022/07/01 14:57:36;;;;;;;1.80;1.70;;;21.90;99.90;;;;;;4995262;28;20938;-65
2022/07/01 15:00:06;;;;;;;1.70;1.47;;;22.00;99.90;;;;;;4995729;28;20454;-65
2022/07/01 15:02:33;;;;;;;1.77;1.67;;;22.30;99.90;;;;;;4995217;28;20488;-65
2022/07/01 15:05:00;;;;;;;1.93;1.73;;;22.50;99.90;;;;;;4995835;28;20800;-65
2022/07/01 15:07:28;;;;;;;1.80;1.70;;;22.60;99.90;;;;;;4995656;28;20512;-65
2022/07/01 15:09:56;;;;;;;2.70;1.50;;;22.50;99.90;;;;;;4995318;28;20464;-65
2022/07/01 15:12:22;;;;;;;2.20;1.47;;;22.30;99.90;;;;;;4994796;28;20512;-64
2022/07/01 15:14:49;;;;;;;2.27;1.60;;;22.30;99.90;;;;;;4995415;28;20457;-65
2022/07/01 15:17:17;;;;;;;1.40;1.40;;;22.20;99.90;;;;;;4994881;28;20945;-65
2022/07/01 15:19:44;;;;;;;1.50;1.50;;;22.20;99.90;;;;;;5003744;28;20453;-65
2022/07/01 15:22:12;;;;;;;1.70;1.60;;;22.20;99.90;;;;;;5008518;28;20473;-65
2022/07/01 15:24:39;;;;;;;1.90;1.80;;;22.10;99.90;;;;;;5000758;28;20540;-65
2022/07/01 15:27:06;;;;;;;3.17;1.50;;;21.80;99.90;;;;;;4995045;28;20457;-65
2022/07/01 15:29:33;;;;;;;2.07;1.87;;;21.70;99.90;;;;;;4994740;28;20453;-65
2022/07/01 15:32:01;;;;;;;1.93;1.73;;;21.60;99.90;;;;;;4994860;28;20477;-64
2022/07/01 15:34:29;;;;;;;1.77;1.67;;;21.60;99.90;;;;;;4994576;28;20457;-65
2022/07/01 15:36:56;;;;;;;2.67;1.47;;;21.80;99.90;;;;;;4994694;28;20581;-66
2022/07/01 15:39:23;;;;;;;1.70;1.57;;;21.80;99.90;;;;;;4994802;28;20457;-65
2022/07/01 15:41:50;;;;;;;2.10;1.53;;;22.00;99.90;;;;;;4994555;28;20552;-65
2022/07/01 15:44:17;;;;;;;1.73;1.63;;;22.00;99.90;;;;;;4994573;28;20453;-65
2022/07/01 15:46:44;;;;;;;1.63;1.53;;;22.10;99.90;;;;;;4994531;28;20454;-65
2022/07/01 15:49:11;;;;;;;2.03;1.47;;;22.20;99.90;;;;;;4994548;28;20457;-65
2022/07/01 15:51:41;;;;;;;1.17;1.17;;;22.10;99.90;;;;;;4994765;28;20489;-65
2022/07/01 15:54:08;;;;;;;1.80;1.70;;;22.30;99.90;;;;;;4994508;28;20457;-65
2022/07/01 15:56:35;;;;;;;1.50;1.43;;;22.40;99.90;;;;;;4994444;28;20457;-65
2022/07/01 15:59:02;;;;;;;1.50;1.40;;;22.60;99.90;;;;;;4994446;28;20480;-65
2022/07/01 16:01:29;;;;;;;2.10;1.37;;;22.40;99.90;;;;;;4994007;28;20495;-65
2022/07/01 16:03:56;;;;;;;2.70;1.40;;;22.30;99.90;;;;;;4994485;28;20484;-65
2022/07/01 16:06:23;;;;;;;1.83;1.73;;;22.30;99.90;;;;;;4994324;28;20485;-65
2022/07/01 16:08:59;;;;;;;1.20;1.20;;;22.40;99.90;;;;;;4993898;28;20861;-65
2022/07/01 16:11:27;;;;;;;2.27;1.40;;;22.50;99.90;;;;;;4996478;28;21054;-65
2022/07/01 16:13:55;;;;;;;0.90;0.90;;;22.30;99.90;;;;;;4998164;28;20460;-65
2022/07/01 16:16:25;;;;;;;1.20;1.10;;;22.30;99.90;;;;;;4998286;28;20466;-65
2022/07/01 16:18:53;;;;;;;1.10;1.07;;;22.40;99.90;;;;;;4998122;28;20454;-65
2022/07/01 16:21:21;;;;;;;1.47;1.40;;;22.30;99.90;;;;;;4998122;28;20484;-65
2022/07/01 16:23:51;;;;;;;1.10;1.00;;;22.30;99.90;;;;;;4997916;28;20536;-65
2022/07/01 16:26:21;;;;;;;1.50;1.40;;;22.30;99.90;;;;;;4998376;28;20799;-65
2022/07/01 16:28:49;;;;;;;1.00;1.00;;;22.40;99.90;;;;;;4997930;28;20453;-65
2022/07/01 16:31:17;;;;;;;1.30;1.20;;;22.30;99.90;;;;;;4997890;28;20480;-65
2022/07/01 16:33:44;;;;;;;1.30;1.30;;;22.20;99.90;;;;;;4997767;28;20796;-65
2022/07/01 16:36:13;;;;;;;1.70;1.20;;;22.20;99.90;;;;;;4997752;28;20458;-65
2022/07/01 16:38:44;;;;;;;1.10;1.00;;;22.20;99.90;;;;;;4997888;28;20493;-65
2022/07/01 16:41:14;;;;;;;1.30;1.30;;;22.20;99.90;;;;;;4997848;28;20477;-65
2022/07/01 16:43:47;;;;;;;1.23;1.23;;;22.00;99.90;;;;;;4997785;28;20481;-65
2022/07/01 16:46:17;;;;;;;3.90;1.57;;;21.80;99.90;;;;;;4997755;28;20448;-65
2022/07/01 16:48:48;;;;;;;1.70;1.37;;;21.70;99.90;;;;;;4997776;28;20457;-65
2022/07/01 16:51:17;;;;;;;3.13;1.53;;;21.70;99.90;;;;;;4997555;28;20500;-65
2022/07/01 16:53:45;;;;;;;1.30;1.30;;;21.60;99.90;;;;;;4997556;28;20449;-64
2022/07/01 16:56:18;;;;;;;1.30;1.20;;;21.70;99.90;;;;;;4997635;28;20461;-65
2022/07/01 16:58:52;;;;;;;4.23;1.20;;;21.60;99.90;;;;;;4997588;28;20437;-65
2022/07/01 17:01:19;;;;;;;1.40;1.40;;;21.50;99.90;;;;;;4997142;28;20996;-65
2022/07/01 17:03:46;;;;;;;1.40;1.40;;;21.40;99.90;;;;;;4996971;28;20481;-65
2022/07/01 17:06:12;;;;;;;1.60;1.50;;;21.20;99.90;;;;;;4997339;28;20511;-65